This is the latest recevied weather packets stored in our database for station/object OM1PU-6. If no packets are shown the sender has not sent any weather packets the latest 10 day(s).
| Time | Temp. | Humidity | Pressure | Rain* | Wind** | Luminosity | Snow |
|---|---|---|---|---|---|---|---|
| 1777415592 | 11.11° C | 47% | 1032.5 hPa | 0 mm | - | - | - |
| 1777414693 | 11.11° C | 46% | 1032.6 hPa | 0 mm | - | - | - |
| 1777413793 | 11.11° C | 47% | 1032.5 hPa | 0 mm | - | - | - |
| 1777412893 | 11.11° C | 49% | 1032.4 hPa | 0 mm | - | - | - |
| 1777411993 | 11.11° C | 50% | 1032.2 hPa | 0 mm | - | - | - |
| 1777411093 | 11.11° C | 51% | 1032 hPa | 0 mm | - | - | - |
| 1777410193 | 11.11° C | 51% | 1031.9 hPa | 0 mm | - | - | - |
| 1777409293 | 11.11° C | 53% | 1031.7 hPa | 0 mm | - | - | - |
| 1777408393 | 11.11° C | 54% | 1031.9 hPa | 0 mm | - | - | - |
| 1777407493 | 11.11° C | 56% | 1031.7 hPa | 0 mm | - | - | - |
| 1777406593 | 11.67° C | 54% | 1031.4 hPa | 0 mm | - | - | - |
| 1777405693 | 11.67° C | 53% | 1031.4 hPa | 0 mm | - | - | - |
| 1777404793 | 12.22° C | 53% | 1031.3 hPa | 0 mm | - | - | - |
| 1777403893 | 12.22° C | 52% | 1031.4 hPa | 0 mm | - | - | - |
| 1777402993 | 12.78° C | 52% | 1031 hPa | 0 mm | - | - | - |
| 1777402093 | 13.33° C | 50% | 1031.1 hPa | 0 mm | - | - | - |
| 1777401194 | 13.89° C | 48% | 1030.8 hPa | 0 mm | - | - | - |
| 1777400294 | 14.44° C | 47% | 1030.7 hPa | 0 mm | - | - | - |
| 1777399393 | 15.56° C | 45% | 1030.6 hPa | 0 mm | - | - | - |
| 1777398493 | 16.11° C | 42% | 1030.5 hPa | 0 mm | - | - | - |
| 1777397593 | 16.67° C | 39% | 1030.2 hPa | 0 mm | - | - | - |
| 1777396693 | 17.78° C | 38% | 1030.1 hPa | 0 mm | - | - | - |
| 1777395793 | 18.33° C | 37% | 1029.9 hPa | 0 mm | - | - | - |
| 1777394893 | 19.44° C | 36% | 1029.9 hPa | 0 mm | - | - | - |
| 1777393993 | 20° C | 36% | 1029.7 hPa | 0 mm | - | - | - |
* Rain latest 24 hours (hover to see other rain measurements)
** Current wind speed in m/s (hover to see current wind gust speed)